FW0745 Guaymas MX current weather conditions

sailwx.info

Wind from 180 at 3 knots gusting 5

Air temperature 24.4° C
Dewpoint 21.4° C

Last reported at 2020-May-31 11:08 UTC.
Time now 2020-May-31 12:08 UTC

Location: N 28°08' W 110°34'.
View on Google Maps.

See reports from other nearby stations

  
Tides and Currents Weather Stations Pressure Air Temp Water Temp Dewpoint Dewpoint Depression Visibility Wind Speed Wind Dir Waves Ship Positions
date/time (UTC)wind fromknots sea level pressurealtimeterstation pressurevisibilityair tempwater tempwave heightnotes
2020-May-31 11:08 180 3 gusting 5 24.4
2020-May-31 10:48 180 3 gusting 5 25.0
2020-May-31 10:38 180 3 gusting 5 24.4
2020-May-31 10:28 202 3 gusting 4 25.0
2020-May-31 10:18 180 4 gusting 6 25.0
2020-May-31 10:08 180 4 gusting 6 25.0
2020-May-31 09:58 180 2 gusting 4 25.0
2020-May-31 09:48 180 2 gusting 3 25.0
2020-May-31 09:38 180 2 gusting 3 25.0
2020-May-31 09:28 180 3 gusting 5 25.0
2020-May-31 09:18 180 1 gusting 2 25.0
2020-May-31 09:08 180 5 gusting 6 25.0
2020-May-31 08:58 202 2 gusting 6 25.0
2020-May-31 08:48 180 3 gusting 4 25.0
2020-May-31 08:38 157 3 gusting 4 25.0
2020-May-31 08:28 157 2 gusting 4 25.0
2020-May-31 08:18 180 3 gusting 5 25.6
2020-May-31 08:08 180 4 gusting 6 25.6
2020-May-31 07:58 180 4 gusting 6 25.6
2020-May-31 07:48 180 3 gusting 5 25.6
2020-May-31 07:38 180 3 gusting 4 25.6
2020-May-31 07:28 180 3 gusting 5 25.6
2020-May-31 07:18 180 2 gusting 5 25.6
2020-May-31 07:08 135 1 gusting 2 25.6
2020-May-31 06:58 157 1 gusting 3 25.6
2020-May-31 06:48 157 1 gusting 2 25.6
2020-May-31 06:38 180 2 gusting 2 25.6
2020-May-31 06:28 180 1 gusting 3 26.1
2020-May-31 06:18 202 2 gusting 3 26.1
2020-May-31 06:08 180 2 gusting 3 25.6
2020-May-31 05:58 180 1 gusting 2 25.6
2020-May-31 05:48 135 0 gusting 1 25.6
2020-May-31 05:38 135 0 gusting 1 26.1
2020-May-31 05:28 135 1 gusting 2 26.1
2020-May-31 05:18 135 1 gusting 2 26.1
2020-May-31 05:08 135 0 gusting 1 26.1
2020-May-31 04:58 135 0 gusting 1 26.7
2020-May-31 04:48 157 1 gusting 2 26.7
2020-May-31 04:38 157 2 gusting 3 26.7
2020-May-31 04:28 180 2 gusting 4 26.7
2020-May-31 04:18 202 0 gusting 1 27.2
2020-May-31 04:08 202 3 gusting 5 27.2
2020-May-31 03:58 180 1 gusting 2 27.2
2020-May-31 03:48 180 1 gusting 2 27.2
2020-May-31 03:38 180 0 gusting 1 27.2
2020-May-31 03:28 180 2 gusting 5 27.2
2020-May-31 03:18 180 2 gusting 3 27.8
2020-May-31 03:08 157 3 gusting 6 27.8
2020-May-31 02:58 157 2 gusting 5 28.3
2020-May-31 02:48 135 5 gusting 7 28.3
2020-May-31 02:38 135 4 gusting 6 28.9
2020-May-31 02:28 157 4 gusting 7 29.4
2020-May-31 02:18 180 4 gusting 6 29.4
2020-May-31 02:08 135 6 gusting 8 30.0
2020-May-31 01:58 157 6 gusting 8 30.6
2020-May-31 01:48 180 3 gusting 5 31.1
2020-May-31 01:38 157 5 gusting 7 31.7
2020-May-31 01:28 135 5 gusting 6 32.2
2020-May-31 01:18 135 4 gusting 6 32.8
2020-May-31 01:08 180 4 gusting 7 32.8
2020-May-31 00:58 202 4 gusting 6 32.8
2020-May-31 00:48 202 4 gusting 6 33.3
2020-May-31 00:38 202 6 gusting 8 33.3
2020-May-31 00:28 180 6 gusting 7 33.3
2020-May-31 00:18 180 6 gusting 8 33.9
2020-May-31 00:08 180 6 gusting 8 33.9
2020-May-30 23:58 180 6 gusting 9 34.4
2020-May-30 23:48 202 5 gusting 7 34.4
2020-May-30 23:38 202 8 gusting 12 34.4
2020-May-30 23:28 225 6 gusting 8 35.0
2020-May-30 23:18 202 6 gusting 9 35.0
2020-May-30 23:08 202 6 gusting 7 35.6
2020-May-30 22:58 180 7 gusting 11 35.6
2020-May-30 22:48 180 6 gusting 7 35.6
2020-May-30 22:38 180 6 gusting 11 35.6
2020-May-30 22:28 202 6 gusting 9 35.0
2020-May-30 22:18 180 6 gusting 9 35.6
2020-May-30 22:08 180 6 gusting 7 35.6
2020-May-30 21:58 157 6 gusting 9 36.1
2020-May-30 21:48 180 7 gusting 13 36.1
2020-May-30 21:38 180 6 gusting 9 36.1
2020-May-30 21:28 202 7 gusting 10 36.1
2020-May-30 21:18 180 6 gusting 9 36.7
2020-May-30 21:08 157 7 gusting 11 37.2
2020-May-30 20:58 180 6 gusting 10 37.2
2020-May-30 20:48 202 4 gusting 7 37.2
2020-May-30 20:38 180 5 gusting 7 37.2
2020-May-30 20:28 180 5 gusting 7 37.2
2020-May-30 20:18 180 4 gusting 6 37.2
2020-May-30 20:08 202 6 gusting 8 36.7
2020-May-30 19:58 202 3 gusting 6 37.2
2020-May-30 19:48 202 6 gusting 9 37.2
2020-May-30 19:38 157 5 gusting 6 37.2
2020-May-30 19:28 247 6 gusting 8 36.7
2020-May-30 19:18 180 6 gusting 11 36.7
2020-May-30 19:08 180 5 gusting 7 36.7
2020-May-30 18:58 202 2 gusting 4 36.7
2020-May-30 18:48 225 2 gusting 4 36.7
2020-May-30 18:38 292 1 gusting 1 36.1
2020-May-30 18:28 135 2 gusting 3 36.1
2020-May-30 18:18 225 0 gusting 1 35.6
2020-May-30 18:08 180 3 gusting 5 35.6
2020-May-30 17:58 202 3 gusting 5 35.0
2020-May-30 17:48 112 5 gusting 6 34.4
2020-May-30 17:38 225 0 gusting 2 33.9
2020-May-30 17:28 225 2 gusting 4 33.9
2020-May-30 17:18 225 1 gusting 5 33.3
2020-May-30 17:08 157 4 gusting 6 32.8
2020-May-30 16:58 112 3 gusting 5 32.2
2020-May-30 16:48 022 1 gusting 3 31.7
2020-May-30 16:38 157 2 gusting 4 31.7
2020-May-30 16:28 157 3 gusting 5 31.7
2020-May-30 16:18 135 1 gusting 2 31.1
2020-May-30 16:08 135 2 gusting 4 30.6
2020-May-30 15:58 202 3 gusting 4 30.0
2020-May-30 15:48 135 3 gusting 5 29.4
2020-May-30 15:38 135 6 gusting 7 28.9
2020-May-30 15:28 135 4 gusting 4 28.3
2020-May-30 15:18 135 5 gusting 7 28.3
2020-May-30 15:08 135 2 gusting 3 27.8
2020-May-30 14:58 112 4 gusting 6 27.8
2020-May-30 14:48 157 2 gusting 3 27.8
2020-May-30 14:38 157 3 gusting 6 27.2
2020-May-30 14:28 135 4 gusting 6 27.2
2020-May-30 14:18 157 3 gusting 6 26.7
2020-May-30 14:08 180 0 gusting 1 26.1
2020-May-30 13:58 202 2 gusting 3 26.1
2020-May-30 13:48 247 1 gusting 1 25.0
2020-May-30 13:38 247 1 gusting 2 24.4
2020-May-30 13:28 247 2 gusting 3 23.9
2020-May-30 13:18 022 0 gusting 2 23.9
2020-May-30 13:08 23.3
2020-May-30 12:58 23.3
2020-May-30 12:48 23.3
2020-May-30 12:38 22.8
2020-May-30 12:28 22.8
2020-May-30 12:18 23.3
2020-May-30 12:08 022 0 gusting 1 23.3
2020-May-30 11:58 022 1 gusting 2 23.3
2020-May-30 11:48 022 1 gusting 1 23.3
2020-May-30 11:38 045 2 gusting 2 23.3
2020-May-30 11:28 23.3
2020-May-30 11:18 045 0 gusting 1 23.3
2020-May-30 11:08 157 0 gusting 1 23.3
2020-May-30 10:58 157 0 gusting 1 23.3
2020-May-30 10:48 157 0 gusting 1 23.3
2020-May-30 10:38 23.3
2020-May-30 10:28 157 0 gusting 0 23.9
2020-May-30 10:19 23.9
2020-May-30 10:08 157 0 gusting 0 23.9
2020-May-30 09:58 157 0 gusting 0 23.9
2020-May-30 09:48 23.9
2020-May-30 09:38 23.9
2020-May-30 09:31 24.4
2020-May-30 09:18 157 1 gusting 3 24.4
2020-May-30 09:08 157 1 gusting 3 24.4
2020-May-30 08:58 157 2 gusting 4 24.4
2020-May-30 08:48 202 1 gusting 2 24.4
2020-May-30 08:38 202 0 gusting 1 24.4
2020-May-30 08:28 25.0
2020-May-30 08:18 180 1 gusting 2 25.0
2020-May-30 08:08 157 0 gusting 1 25.0
2020-May-30 07:58 157 0 gusting 1 25.0
2020-May-30 07:48 180 1 gusting 2 25.0
2020-May-30 07:38 180 1 gusting 3 25.0
2020-May-30 07:28 135 1 gusting 2 25.6
2020-May-30 07:18 157 1 gusting 4 25.0
2020-May-30 07:08 157 0 gusting 1 25.0
2020-May-30 06:58 157 0 gusting 0 25.6
2020-May-30 06:48 157 0 gusting 1 25.6
2020-May-30 06:38 25.6
2020-May-30 06:28 25.6
2020-May-30 06:18 25.6
2020-May-30 06:08 180 0 gusting 1 26.1
2020-May-30 05:58 180 0 gusting 0 26.1
2020-May-30 05:48 180 0 gusting 1 26.1
2020-May-30 05:38 180 0 gusting 1 26.1
2020-May-30 05:28 180 0 gusting 1 26.1
2020-May-30 05:18 180 1 gusting 2 26.1
2020-May-30 05:08 180 0 gusting 0 26.1
2020-May-30 04:58 247 1 gusting 2 26.1
2020-May-30 04:48 225 1 gusting 2 26.7
2020-May-30 04:38 225 1 gusting 2 26.7
2020-May-30 04:28 202 1 gusting 1 26.7
2020-May-30 04:18 202 1 gusting 1 26.7
2020-May-30 04:08 202 1 gusting 2 27.2
2020-May-30 03:58 180 1 gusting 3 27.2
2020-May-30 03:48 180 0 gusting 1 27.2
2020-May-30 03:38 157 1 gusting 2 27.2
2020-May-30 03:28 135 2 gusting 3 27.2
2020-May-30 03:18 135 2 gusting 4 27.2
2020-May-30 03:08 157 3 gusting 5 27.2
2020-May-30 02:58 135 1 gusting 3 27.2
2020-May-30 02:48 157 5 gusting 8 27.8
2020-May-30 02:38 157 3 gusting 5 27.8
2020-May-30 02:28 180 5 gusting 8 28.3
2020-May-30 02:18 180 4 gusting 6 28.3
2020-May-30 02:08 157 4 gusting 6 28.9
2020-May-30 01:58 157 6 gusting 7 29.4
2020-May-30 01:48 157 5 gusting 7 29.4
2020-May-30 01:38 180 4 gusting 6 30.0
2020-May-30 01:28 157 5 gusting 7 30.6
2020-May-30 01:18 135 6 gusting 8 31.7
2020-May-30 01:08 135 6 gusting 10 32.2
2020-May-30 00:58 180 5 gusting 7 32.2
2020-May-30 00:48 157 6 gusting 8 32.2
2020-May-30 00:38 157 6 gusting 11 32.8
2020-May-30 00:28 180 5 gusting 9 32.8
2020-May-30 00:18 180 6 gusting 8 32.8
2020-May-30 00:08 180 4 gusting 7 32.8
2020-May-29 23:58 202 6 gusting 7 32.8
2020-May-29 23:48 180 6 gusting 8 33.3
2020-May-29 23:38 180 6 gusting 10 33.3
2020-May-29 23:28 180 6 gusting 8 33.3
2020-May-29 23:18 180 7 gusting 13 33.9
2020-May-29 23:08 157 5 gusting 7 33.9
2020-May-29 22:58 202 6 gusting 7 34.4
2020-May-29 22:48 180 6 gusting 10 34.4
2020-May-29 22:38 180 6 gusting 11 34.4
2020-May-29 22:28 180 6 gusting 10 34.4
2020-May-29 22:18 180 6 gusting 11 34.4
2020-May-29 22:08 225 5 gusting 8 34.4
2020-May-29 21:58 180 6 gusting 9 34.4
2020-May-29 21:48 202 6 gusting 7 34.4
2020-May-29 21:38 202 7 gusting 10 35.0
2020-May-29 21:28 180 6 gusting 7 34.4
2020-May-29 21:18 202 7 gusting 11 35.0
2020-May-29 21:08 180 4 gusting 6 35.0
2020-May-29 20:58 202 7 gusting 10 35.0
2020-May-29 20:48 180 6 gusting 8 35.6
2020-May-29 20:38 225 5 gusting 7 35.0
2020-May-29 20:28 225 6 gusting 8 35.0
2020-May-29 20:18 225 5 gusting 8 35.6
2020-May-29 20:08 180 4 gusting 8 35.0
2020-May-29 19:58 202 4 gusting 7 35.0
2020-May-29 19:48 180 5 gusting 7 35.0
2020-May-29 19:38 202 5 gusting 7 35.0
2020-May-29 19:28 157 6 gusting 7 35.0
2020-May-29 19:18 202 5 gusting 7 35.0
2020-May-29 19:08 202 6 gusting 11 34.4
2020-May-29 18:58 202 2 gusting 3 34.4
2020-May-29 18:48 202 4 gusting 5 33.9
2020-May-29 18:38 292 0 gusting 1 33.9
2020-May-29 18:28 202 4 gusting 6 33.3
2020-May-29 18:18 225 3 gusting 7 33.3
2020-May-29 18:08 292 1 gusting 3 33.3
2020-May-29 17:58 202 3 gusting 6 33.3
2020-May-29 17:48 225 1 gusting 2 33.3
2020-May-29 17:38 180 6 gusting 8 33.3
2020-May-29 17:28 135 1 gusting 2 32.8
2020-May-29 17:18 202 3 gusting 5 32.2
2020-May-29 17:08 067 1 gusting 4 32.2
2020-May-29 16:58 180 2 gusting 5 31.7
2020-May-29 16:48 135 4 gusting 6 31.1
2020-May-29 16:38 202 4 gusting 6 31.1
2020-May-29 16:28 090 5 gusting 6 30.6
2020-May-29 16:18 157 4 gusting 6 30.0
2020-May-29 16:08 090 2 gusting 3 30.0
2020-May-29 15:58 157 0 gusting 1 29.4
2020-May-29 15:48 135 2 gusting 5 28.9
2020-May-29 15:38 157 1 gusting 3 28.3
2020-May-29 15:28 112 2 gusting 4 28.3
2020-May-29 15:18 157 0 gusting 2 27.8
2020-May-29 15:08 157 1 gusting 4 27.8
2020-May-29 14:58 112 1 gusting 2 27.2
2020-May-29 14:48 180 1 gusting 2 26.7
2020-May-29 14:38 090 0 gusting 1 26.7
2020-May-29 14:28 26.1
2020-May-29 14:18 26.1
2020-May-29 14:08 25.0
2020-May-29 13:58 24.4
2020-May-29 13:48 090 0 gusting 1 24.4
2020-May-29 13:38 23.9
2020-May-29 13:28 23.3
2020-May-29 13:18 090 0 gusting 1 22.8
2020-May-29 12:58 21.7
2020-May-29 12:48 090 0 gusting 1 21.7
2020-May-29 12:38 21.7
2020-May-29 12:28 090 1 gusting 1 21.1
2020-May-29 12:18 21.1
2020-May-29 12:08 21.1